Time;durP1;ratioP1;P1;durP2;ratioP2;P2;SDS_P1;SDS_P2;PMS_P1;PMS_P2;Temp;Humidity;BMP_temperature;BMP_pressure;BME280_temperature;BME280_humidity;BME280_pressure;Samples;Min_cycle;Max_cycle;Signal;HPM_P1;HPM_P2
2022/09/23 00:00:29;;;;;;;10.30;6.38;;;;;;;8.14;100.00;101876.28;5113676;28;20459;-76
2022/09/23 00:02:54;;;;;;;13.23;6.65;;;;;;;8.07;100.00;101866.03;5114355;28;20061;-76
2022/09/23 00:05:20;;;;;;;10.10;5.82;;;;;;;8.05;100.00;101867.94;5113913;28;20153;-76
2022/09/23 00:07:45;;;;;;;7.05;6.00;;;;;;;8.04;100.00;101871.53;5113610;28;20024;-76
2022/09/23 00:10:10;;;;;;;10.68;5.97;;;;;;;7.99;100.00;101864.84;5113991;28;20032;-76
2022/09/23 00:12:36;;;;;;;6.50;5.38;;;;;;;7.93;100.00;101853.69;5113380;28;20024;-76
2022/09/23 00:15:03;;;;;;;11.02;6.18;;;;;;;7.88;100.00;101866.38;5113609;28;20043;-76
2022/09/23 00:17:30;;;;;;;8.82;6.88;;;;;;;7.85;100.00;101863.06;5113686;28;20039;-77
2022/09/23 00:19:55;;;;;;;8.63;6.97;;;;;;;7.82;100.00;101856.13;5112583;28;20042;-76
2022/09/23 00:22:20;;;;;;;8.70;5.88;;;;;;;7.80;100.00;101858.03;5113577;28;20466;-76
2022/09/23 00:24:46;;;;;;;10.93;6.65;;;;;;;7.75;100.00;101862.78;5113113;28;20035;-77
2022/09/23 00:27:11;;;;;;;10.05;6.95;;;;;;;7.68;100.00;101859.66;5113491;28;20036;-76
2022/09/23 00:29:37;;;;;;;11.02;7.13;;;;;;;7.62;100.00;101857.41;5113000;28;20039;-76
2022/09/23 00:32:03;;;;;;;8.82;6.32;;;;;;;7.57;100.00;101859.50;5113598;28;20042;-76
2022/09/23 00:34:28;;;;;;;6.68;5.38;;;;;;;7.53;100.00;101855.31;5113121;28;20039;-74
2022/09/23 00:36:55;;;;;;;7.85;6.20;;;;;;;7.52;100.00;101853.59;5112997;28;20536;-74
2022/09/23 00:39:22;;;;;;;7.60;5.50;;;;;;;7.52;100.00;101850.97;5113315;28;20060;-74
2022/09/23 00:41:47;;;;;;;7.22;5.78;;;;;;;7.53;100.00;101847.38;5112820;28;20039;-75
2022/09/23 00:44:50;;;;;;;14.95;8.30;;;;;;;7.57;100.00;101851.53;5113242;28;20027;-74
2022/09/23 00:47:19;;;;;;;6.00;5.40;;;;;;;7.57;100.00;101843.59;5113158;28;20024;-74
2022/09/23 00:49:46;;;;;;;9.70;5.38;;;;;;;7.56;100.00;101840.06;5112809;28;20071;-75
2022/09/23 00:52:15;;;;;;;10.38;6.57;;;;;;;7.55;100.00;101838.41;5112941;28;20030;-74
2022/09/23 00:54:42;;;;;;;7.35;5.20;;;;;;;7.59;100.00;101839.88;5112404;28;20114;-74
2022/09/23 00:57:10;;;;;;;7.78;5.35;;;;;;;7.62;100.00;101844.16;5113271;28;20443;-74
2022/09/23 00:59:36;;;;;;;8.60;6.07;;;;;;;7.67;100.00;101839.41;5112398;28;20085;-75
2022/09/23 01:02:03;;;;;;;7.15;5.30;;;;;;;7.71;100.00;101842.72;5112987;28;20507;-75
2022/09/23 01:04:29;;;;;;;7.22;4.82;;;;;;;7.71;100.00;101840.91;5113511;28;20061;-68
2022/09/23 01:06:54;;;;;;;8.77;5.88;;;;;;;7.72;100.00;101844.44;5113859;28;20032;-68
2022/09/23 01:09:21;;;;;;;8.70;6.05;;;;;;;7.70;100.00;101836.59;5112875;28;20416;-68
2022/09/23 01:11:59;;;;;;;6.82;5.03;;;;;;;7.66;100.00;101837.72;5113510;28;20035;-68
2022/09/23 01:14:47;;;;;;;6.03;5.32;;;;;;;7.63;100.00;101839.69;5113667;28;20059;-68
2022/09/23 01:17:27;;;;;;;7.80;5.53;;;;;;;7.59;100.00;101831.94;5113817;28;20049;-69
2022/09/23 01:20:34;;;;;;;7.30;6.18;;;;;;;7.59;100.00;101828.44;5111986;28;20050;-69
2022/09/23 01:23:21;;;;;;;10.32;6.03;;;;;;;7.58;100.00;101832.03;5114551;28;20055;-69
2022/09/23 01:26:16;;;;;;;8.57;5.65;;;;;;;7.58;100.00;101824.97;5113952;28;20032;-69
2022/09/23 01:28:55;;;;;;;9.55;6.13;;;;;;;7.62;100.00;101822.97;5113642;28;20028;-69
2022/09/23 01:31:39;;;;;;;9.30;6.63;;;;;;;7.66;100.00;101823.59;5114080;28;20080;-68
2022/09/23 01:34:14;;;;;;;8.23;5.85;;;;;;;7.67;100.00;101820.88;5114367;28;20034;-68
2022/09/23 01:37:08;;;;;;;7.25;5.63;;;;;;;7.67;100.00;101812.91;5113704;28;20028;-69
2022/09/23 01:39:42;;;;;;;6.68;5.82;;;;;;;7.65;100.00;101808.69;5114440;28;20027;-68
2022/09/23 01:42:30;;;;;;;7.82;5.13;;;;;;;7.62;100.00;101804.41;5113857;28;20054;-69
2022/09/23 01:45:09;;;;;;;6.32;5.38;;;;;;;7.57;100.00;101795.94;5114009;28;20349;-68
2022/09/23 01:47:53;;;;;;;6.95;5.65;;;;;;;7.54;100.00;101798.78;5113901;28;20023;-68
2022/09/23 01:53:50;;;;;;;9.50;6.78;;;;;;;7.48;100.00;101793.81;5113564;28;20452;-68
2022/09/23 01:56:25;;;;;;;6.95;5.50;;;;;;;7.46;100.00;101795.72;5089779;28;20062;-68
2022/09/23 01:59:09;;;;;;;10.82;7.40;;;;;;;7.45;100.00;101794.03;5113186;28;20027;-69
2022/09/23 02:01:41;;;;;;;9.25;6.38;;;;;;;7.46;100.00;101793.09;5113519;28;20031;-69
2022/09/23 02:04:22;;;;;;;9.55;6.90;;;;;;;7.48;100.00;101792.06;5113964;28;20032;-69
2022/09/23 02:06:58;;;;;;;9.07;6.63;;;;;;;7.53;100.00;101786.47;5116219;28;20345;-69
2022/09/23 02:09:30;;;;;;;11.35;8.02;;;;;;;7.60;100.00;101793.09;5117608;28;20038;-69
2022/09/23 02:12:03;;;;;;;10.93;7.22;;;;;;;7.64;100.00;101791.09;5117732;28;20026;-69
2022/09/23 02:14:35;;;;;;;9.98;6.82;;;;;;;7.68;100.00;101795.25;5117724;28;20023;-69
2022/09/23 02:17:09;;;;;;;8.05;7.10;;;;;;;7.72;100.00;101789.66;5117324;28;20027;-69
2022/09/23 02:19:52;;;;;;;9.68;7.63;;;;;;;7.74;100.00;101785.09;5118110;28;20078;-69
2022/09/23 02:22:54;;;;;;;8.70;6.63;;;;;;;7.82;100.00;101787.25;5117572;28;20031;-69
2022/09/23 02:25:22;;;;;;;;;;;;;;;7.89;100.00;101791.22;5074086;28;20043;-68
2022/09/23 02:28:10;;;;;;;9.85;7.20;;;;;;;7.99;100.00;101785.34;5117605;28;19960;-69
2022/09/23 02:30:45;;;;;;;8.93;6.45;;;;;;;8.03;100.00;101785.03;5115859;28;20020;-68
2022/09/23 02:33:32;;;;;;;7.47;6.07;;;;;;;8.05;100.00;101777.00;5116234;28;20455;-69
2022/09/23 02:36:14;;;;;;;9.63;6.80;;;;;;;8.08;100.00;101777.63;5117215;28;20050;-69
2022/09/23 02:38:50;;;;;;;;;;;;;;;8.10;100.00;101783.66;5117626;28;20028;-68
2022/09/23 02:41:31;;;;;;;9.13;6.35;;;;;;;8.11;100.00;101772.13;5116850;28;19912;-67
2022/09/23 02:44:07;;;;;;;6.63;5.85;;;;;;;8.14;100.00;101772.91;5116971;28;20474;-68
2022/09/23 02:46:34;;;;;;;12.57;6.90;;;;;;;8.19;100.00;101768.13;5116468;28;20020;-68
2022/09/23 02:49:17;;;;;;;8.50;6.97;;;;;;;8.23;100.00;101762.53;5115468;28;20035;-68
2022/09/23 02:51:44;;;;;;;9.52;7.00;;;;;;;8.28;100.00;101767.50;5116470;28;20024;-68
2022/09/23 02:54:13;;;;;;;9.75;7.13;;;;;;;8.33;100.00;101756.59;5115977;28;20023;-70
2022/09/23 02:56:39;;;;;;;9.18;7.18;;;;;;;8.37;100.00;101758.94;5115937;28;20395;-69
2022/09/23 02:59:06;;;;;;;7.07;6.28;;;;;;;8.42;100.00;101758.63;5116079;28;20036;-68
2022/09/23 03:01:55;;;;;;;12.15;7.45;;;;;;;8.49;100.00;101744.06;5116794;28;20452;-70
2022/09/23 03:04:30;;;;;;;8.80;7.30;;;;;;;8.54;100.00;101746.38;5116079;28;20471;-69
2022/09/23 03:07:07;;;;;;;8.85;6.88;;;;;;;8.61;100.00;101745.03;5116680;28;20034;-68
2022/09/23 03:09:46;;;;;;;10.13;6.80;;;;;;;8.65;100.00;101736.75;5116122;28;20023;-68
2022/09/23 03:12:20;;;;;;;10.32;7.22;;;;;;;8.71;100.00;101743.44;5115672;28;20020;-69
2022/09/23 03:15:11;;;;;;;12.57;7.40;;;;;;;8.77;100.00;101744.84;5116412;28;20615;-68
2022/09/23 03:17:55;;;;;;;9.32;6.68;;;;;;;8.83;100.00;101737.28;5115893;28;20038;-67
2022/09/23 03:20:34;;;;;;;23.02;6.93;;;;;;;8.87;100.00;101743.25;5116148;28;20028;-69
2022/09/23 03:23:05;;;;;;;12.50;6.97;;;;;;;8.90;100.00;101737.72;5116525;28;20037;-69
2022/09/23 03:25:35;;;;;;;9.43;7.20;;;;;;;8.94;100.00;101741.00;5115756;28;20031;-68
2022/09/23 03:28:02;;;;;;;10.45;7.30;;;;;;;8.97;100.00;101738.13;5115833;28;20038;-68
2022/09/23 03:30:30;;;;;;;8.15;6.82;;;;;;;8.99;100.00;101731.78;5115589;28;20059;-69
2022/09/23 03:32:59;;;;;;;9.27;6.72;;;;;;;9.05;100.00;101732.31;5114212;28;20440;-68
2022/09/23 03:35:28;;;;;;;11.23;7.45;;;;;;;9.06;100.00;101732.22;5114503;28;20063;-68
2022/09/23 03:38:05;;;;;;;9.60;7.13;;;;;;;9.10;100.00;101738.16;5115054;28;20024;-68
2022/09/23 03:40:43;;;;;;;11.85;6.93;;;;;;;9.14;100.00;101736.97;5115971;28;20161;-68
2022/09/23 03:43:12;;;;;;;11.02;7.95;;;;;;;9.17;100.00;101732.28;5115769;28;20027;-68
2022/09/23 03:45:37;;;;;;;9.82;7.30;;;;;;;9.20;100.00;101719.78;5115701;28;20024;-68
2022/09/23 03:48:03;;;;;;;9.55;7.47;;;;;;;9.23;100.00;101724.88;5115765;28;20049;-68
2022/09/23 03:50:29;;;;;;;11.43;7.78;;;;;;;9.29;100.00;101721.78;5114511;28;20478;-68
2022/09/23 03:52:54;;;;;;;9.40;7.15;;;;;;;9.33;100.00;101720.56;5115206;28;20130;-68
2022/09/23 03:55:20;;;;;;;9.32;6.68;;;;;;;9.38;100.00;101709.66;5115039;28;20028;-68
2022/09/23 03:57:46;;;;;;;8.85;7.25;;;;;;;9.40;100.00;101710.38;5114957;28;20037;-68
2022/09/23 04:00:13;;;;;;;8.43;6.95;;;;;;;9.42;100.00;101708.44;5115127;28;20031;-68
2022/09/23 04:02:39;;;;;;;9.60;7.07;;;;;;;9.43;100.00;101708.34;5115466;28;20032;-69
2022/09/23 04:05:05;;;;;;;10.18;7.63;;;;;;;9.44;100.00;101707.38;5114556;28;20105;-68
2022/09/23 04:07:31;;;;;;;12.52;7.00;;;;;;;9.46;100.00;101704.63;5096601;28;20123;-69
2022/09/23 04:09:56;;;;;;;13.98;7.90;;;;;;;9.45;100.00;101706.44;5114851;28;20511;-68
2022/09/23 04:12:21;;;;;;;8.40;6.97;;;;;;;9.46;100.00;101702.78;5114422;28;20042;-70
2022/09/23 04:14:47;;;;;;;10.70;7.07;;;;;;;9.46;100.00;101701.97;5114705;28;20023;-68
2022/09/23 04:17:13;;;;;;;10.60;7.63;;;;;;;9.47;100.00;101698.34;5114656;28;20066;-69
2022/09/23 04:19:38;;;;;;;10.68;7.00;;;;;;;9.46;100.00;101692.16;5112776;28;20058;-69
2022/09/23 04:22:05;;;;;;;12.52;7.65;;;;;;;9.49;100.00;101694.63;5114536;28;20032;-69
2022/09/23 04:24:30;;;;;;;10.05;7.55;;;;;;;9.50;100.00;101695.47;5114245;28;20031;-68
2022/09/23 04:26:56;;;;;;;11.30;7.47;;;;;;;9.51;100.00;101695.34;5114434;28;20028;-69
2022/09/23 04:29:23;;;;;;;7.63;6.65;;;;;;;9.50;100.00;101693.66;5112509;28;20092;-69
2022/09/23 04:31:49;;;;;;;11.55;7.47;;;;;;;9.50;100.00;101687.50;5114166;28;20070;-68
2022/09/23 04:34:16;;;;;;;10.30;6.80;;;;;;;9.51;100.00;101695.34;5114226;28;20411;-69
2022/09/23 04:36:41;;;;;;;9.90;7.90;;;;;;;9.49;100.00;101691.97;5113307;28;20055;-69
2022/09/23 04:39:07;;;;;;;14.25;7.90;;;;;;;9.50;100.00;101698.13;5114723;28;20460;-68
2022/09/23 04:41:32;;;;;;;10.02;7.18;;;;;;;9.47;100.00;101690.38;5114541;28;20081;-68
2022/09/23 04:43:58;;;;;;;9.00;7.30;;;;;;;9.48;100.00;101690.28;5114165;28;20039;-68
2022/09/23 04:46:23;;;;;;;12.95;7.55;;;;;;;9.47;100.00;101691.22;5114787;28;20123;-69
2022/09/23 04:48:49;;;;;;;10.30;7.45;;;;;;;9.49;100.00;101693.75;5114682;28;20106;-68
2022/09/23 04:51:17;;;;;;;19.17;7.82;;;;;;;9.49;100.00;101697.28;5114296;28;20034;-68
2022/09/23 04:53:44;;;;;;;9.73;7.95;;;;;;;9.51;100.00;101692.69;5113996;28;20062;-68
2022/09/23 04:56:16;;;;;;;9.90;7.50;;;;;;;9.53;100.00;101688.13;5113609;28;20472;-68
2022/09/23 04:58:42;;;;;;;10.45;6.80;;;;;;;9.55;100.00;101692.47;5114163;28;20023;-67
2022/09/23 05:01:12;;;;;;;11.23;7.95;;;;;;;9.56;100.00;101692.38;5113840;28;20123;-68
2022/09/23 05:03:38;;;;;;;13.77;7.22;;;;;;;9.60;100.00;101698.28;5113319;28;20032;-68
2022/09/23 05:06:04;;;;;;;9.48;7.60;;;;;;;9.60;100.00;101693.84;5112600;28;20024;-68
2022/09/23 05:08:29;;;;;;;12.85;7.57;;;;;;;9.59;100.00;101701.94;5113256;28;20059;-68
2022/09/23 05:10:59;;;;;;;11.43;7.63;;;;;;;9.60;100.00;101698.28;5114352;28;20100;-68
2022/09/23 05:13:25;;;;;;;11.13;6.85;;;;;;;9.61;100.00;101700.00;5113725;28;20032;-69
2022/09/23 05:16:03;;;;;;;14.10;7.90;;;;;;;9.61;100.00;101698.19;5112811;28;20118;-69
2022/09/23 05:18:33;;;;;;;9.55;7.35;;;;;;;9.62;100.00;101694.56;5114325;28;20052;-69
2022/09/23 05:20:58;;;;;;;9.63;7.07;;;;;;;9.64;100.00;101695.31;5114271;28;20092;-68
2022/09/23 05:23:24;;;;;;;9.13;7.28;;;;;;;9.67;100.00;101694.22;5112714;28;20040;-69
2022/09/23 05:26:00;;;;;;;11.20;6.70;;;;;;;9.69;100.00;101700.31;5114469;28;20051;-70
2022/09/23 05:28:30;;;;;;;11.40;7.38;;;;;;;9.71;100.00;101701.03;5112216;28;20028;-69
2022/09/23 05:31:14;;;;;;;10.88;6.93;;;;;;;9.71;100.00;101703.69;5113265;28;20383;-68
2022/09/23 05:33:41;;;;;;;8.52;6.78;;;;;;;9.71;100.00;101696.56;5113642;28;20045;-68
2022/09/23 05:36:06;;;;;;;8.30;6.68;;;;;;;9.73;100.00;101696.44;5113538;28;20032;-68
2022/09/23 05:38:33;;;;;;;12.40;7.18;;;;;;;9.74;100.00;101697.31;5113113;28;20038;-69
2022/09/23 05:41:00;;;;;;;10.95;7.13;;;;;;;9.75;100.00;101705.16;5116236;28;20035;-67
2022/09/23 05:43:26;;;;;;;9.20;6.70;;;;;;;9.75;100.00;101696.31;5117445;28;20039;-69
2022/09/23 05:46:01;;;;;;;11.85;7.03;;;;;;;9.75;100.00;101697.19;5117612;28;20123;-68
2022/09/23 05:48:30;;;;;;;11.02;6.82;;;;;;;9.77;100.00;101689.94;5117101;28;20448;-68
2022/09/23 05:50:55;;;;;;;11.68;7.30;;;;;;;9.80;100.00;101700.34;5118160;28;20124;-69
2022/09/23 05:53:20;;;;;;;10.88;7.00;;;;;;;9.82;100.00;101695.78;5116152;28;20055;-69
2022/09/23 05:55:46;;;;;;;9.07;7.45;;;;;;;9.86;100.00;101699.06;5117122;28;20101;-70
2022/09/23 05:58:11;;;;;;;11.13;6.82;;;;;;;9.90;100.00;101703.19;5117283;28;20032;-69
2022/09/23 06:00:41;;;;;;;8.55;6.60;;;;;;;9.94;100.00;101703.78;5117457;28;20477;-68
2022/09/23 06:03:13;;;;;;;11.60;6.63;;;;;;;9.99;100.00;101699.00;5117425;28;20153;-68
2022/09/23 06:05:39;;;;;;;16.02;7.68;;;;;;;10.06;100.00;101706.41;5116838;28;20156;-69
2022/09/23 06:08:05;;;;;;;12.35;6.72;;;;;;;10.12;100.00;101705.09;5116961;28;20067;-69
2022/09/23 06:10:42;;;;;;;16.15;8.27;;;;;;;10.19;100.00;101711.63;5116253;28;20092;-70
2022/09/23 06:13:08;;;;;;;12.38;7.28;;;;;;;10.27;100.00;101702.22;5117219;28;20436;-68
2022/09/23 06:15:35;;;;;;;9.55;6.97;;;;;;;10.32;100.00;101698.25;5116816;28;20118;-69
2022/09/23 06:18:00;;;;;;;9.95;7.03;;;;;;;10.39;100.00;101696.03;5116202;28;20391;-69
2022/09/23 06:20:26;;;;;;;11.07;7.13;;;;;;;10.47;100.00;101695.44;5116622;28;20032;-69
2022/09/23 06:22:52;;;;;;;10.93;6.68;;;;;;;10.54;100.00;101699.34;5115216;28;20482;-69
2022/09/23 06:25:18;;;;;;;10.20;7.50;;;;;;;10.62;100.00;101694.25;5116314;28;20085;-69
2022/09/23 06:27:53;;;;;;;10.75;7.68;;;;;;;10.68;100.00;101695.59;5116485;28;20032;-69
2022/09/23 06:30:18;;;;;;;11.55;7.70;;;;;;;10.76;100.00;101695.84;5115438;28;20035;-70
2022/09/23 06:32:48;;;;;;;22.00;7.53;;;;;;;10.83;100.00;101691.72;5116753;28;20039;-68
2022/09/23 06:35:14;;;;;;;14.35;6.75;;;;;;;10.91;100.00;101696.44;5115005;28;20364;-69
2022/09/23 06:37:39;;;;;;;13.15;7.75;;;;;;;10.98;100.00;101695.00;5116135;28;20123;-69
2022/09/23 06:40:05;;;;;;;11.02;7.38;;;;;;;11.05;100.00;101690.06;5115790;28;20028;-69
2022/09/23 06:42:30;;;;;;;13.02;7.40;;;;;;;11.14;100.00;101694.66;5116273;28;20043;-69
2022/09/23 06:44:55;;;;;;;10.38;6.82;;;;;;;11.22;100.00;101689.53;5116144;28;20422;-69
2022/09/23 06:47:21;;;;;;;16.92;7.65;;;;;;;11.31;100.00;101692.47;5116539;28;20049;-70
2022/09/23 06:49:47;;;;;;;12.85;7.50;;;;;;;11.37;100.00;101687.47;5115979;28;20027;-69
2022/09/23 06:52:12;;;;;;;12.65;8.23;;;;;;;11.46;100.00;101692.06;5115322;28;20119;-69
2022/09/23 06:54:37;;;;;;;10.90;7.20;;;;;;;11.54;100.00;101683.47;5115515;28;20106;-70
2022/09/23 06:57:03;;;;;;;10.93;7.45;;;;;;;11.65;100.00;101685.25;5116507;28;20085;-69
2022/09/23 06:59:28;;;;;;;12.25;7.82;;;;;;;11.77;100.00;101686.88;5116218;28;20031;-69
2022/09/23 07:01:53;;;;;;;10.27;6.50;;;;;;;11.85;100.00;101685.41;5116140;28;20035;-68
2022/09/23 07:04:19;;;;;;;11.00;7.20;;;;;;;11.92;100.00;101682.09;5115837;28;20530;-69
2022/09/23 07:06:44;;;;;;;9.57;6.95;;;;;;;12.02;100.00;101681.38;5115554;28;20487;-69
2022/09/23 07:09:09;;;;;;;12.25;7.60;;;;;;;12.14;100.00;101694.53;5115972;28;20502;-68
2022/09/23 07:11:36;;;;;;;15.00;7.60;;;;;;;12.27;100.00;101691.69;5116046;28;20379;-68
2022/09/23 07:14:02;;;;;;;11.68;7.10;;;;;;;12.41;100.00;101687.03;5116023;28;20059;-69
2022/09/23 07:16:27;;;;;;;13.93;7.50;;;;;;;12.53;100.00;101686.78;5114296;28;20093;-69
2022/09/23 07:18:53;;;;;;;14.65;7.35;;;;;;;12.67;100.00;101682.97;5115993;28;20093;-69
2022/09/23 07:21:19;;;;;;;12.38;7.03;;;;;;;12.82;100.00;101682.59;5116343;28;20122;-69
2022/09/23 07:23:47;;;;;;;17.13;7.10;;;;;;;12.90;100.00;101676.59;5115517;28;20452;-69
2022/09/23 07:26:14;;;;;;;15.38;7.18;;;;;;;13.02;100.00;101680.88;5115965;28;20019;-69
2022/09/23 07:28:39;;;;;;;16.63;7.05;;;;;;;13.10;100.00;101688.22;5116099;28;20039;-69
2022/09/23 07:31:07;;;;;;;11.93;7.10;;;;;;;13.16;100.00;101685.00;5097382;28;20032;-68
2022/09/23 07:33:35;;;;;;;16.20;7.53;;;;;;;13.17;100.00;101676.00;5115417;28;20088;-69
2022/09/23 07:36:07;;;;;;;22.00;8.15;;;;;;;13.21;100.00;101688.09;5115469;28;20095;-69
2022/09/23 07:38:34;;;;;;;18.08;7.80;;;;;;;13.19;100.00;101677.53;5114986;28;20031;-69
2022/09/23 07:41:04;;;;;;;18.27;8.45;;;;;;;13.20;100.00;101681.91;5115651;28;20081;-69
2022/09/23 07:43:33;;;;;;;14.50;7.75;;;;;;;13.27;100.00;101679.56;5115303;28;20024;-69
2022/09/23 07:46:01;;;;;;;15.10;8.13;;;;;;;13.34;100.00;101685.22;5115032;28;20035;-69
2022/09/23 07:48:28;;;;;;;17.45;8.52;;;;;;;13.39;100.00;101685.63;5115312;28;20032;-69
2022/09/23 07:50:54;;;;;;;19.38;8.45;;;;;;;13.49;100.00;101689.19;5115202;28;20032;-69
2022/09/23 07:53:20;;;;;;;14.23;8.55;;;;;;;13.57;100.00;101694.72;5115149;28;20028;-69
2022/09/23 07:55:51;;;;;;;17.23;8.63;;;;;;;13.63;100.00;101687.97;5114742;28;20043;-69
2022/09/23 07:58:17;;;;;;;12.82;8.00;;;;;;;13.77;100.00;101696.56;5115313;28;20028;-68
2022/09/23 08:00:42;;;;;;;13.43;7.63;;;;;;;13.89;100.00;101690.09;5115226;28;20039;-68
2022/09/23 08:03:08;;;;;;;15.95;8.25;;;;;;;14.01;100.00;101688.97;5114635;28;20071;-68
2022/09/23 08:05:35;;;;;;;13.43;8.02;;;;;;;14.11;100.00;101684.47;5114819;28;20032;-68
2022/09/23 08:08:01;;;;;;;18.08;8.45;;;;;;;14.21;100.00;101691.63;5114810;28;20031;-68
2022/09/23 08:10:26;;;;;;;16.00;8.80;;;;;;;14.28;100.00;101684.72;5113736;28;20042;-68
2022/09/23 08:12:52;;;;;;;14.90;8.35;;;;;;;14.31;100.00;101694.31;5114587;28;20031;-68
2022/09/23 08:15:17;;;;;;;16.58;8.85;;;;;;;14.31;100.00;101691.63;5114700;28;20020;-68
2022/09/23 08:17:43;;;;;;;13.55;8.52;;;;;;;14.27;100.00;101683.03;5096116;28;20053;-68
2022/09/23 08:20:42;;;;;;;17.02;8.25;;;;;;;14.27;100.00;101683.88;5115074;28;20115;-68
2022/09/23 08:22:55;;;;;;;25.20;8.15;;;;;;;14.31;100.00;101684.44;5114348;28;20075;-68
2022/09/23 08:25:21;;;;;;;17.13;8.27;;;;;;;14.38;100.00;101693.59;5114554;28;20114;-69
2022/09/23 08:27:46;;;;;;;16.85;9.35;;;;;;;14.46;100.00;101688.38;5114306;28;20028;-70
2022/09/23 08:30:11;;;;;;;10.32;7.70;;;;;;;14.58;100.00;101689.03;5114334;28;20364;-69
2022/09/23 08:32:37;;;;;;;15.15;8.23;;;;;;;14.71;99.76;101690.59;5113301;28;20035;-69
2022/09/23 08:35:02;;;;;;;18.75;8.25;;;;;;;14.96;100.00;101694.47;5114670;28;20028;-69
2022/09/23 08:37:28;;;;;;;13.10;7.65;;;;;;;15.19;98.71;101692.22;5113086;28;20114;-69
2022/09/23 08:39:53;;;;;;;18.83;8.63;;;;;;;15.52;97.61;101695.28;5114388;28;20028;-70
2022/09/23 08:42:31;;;;;;;13.98;8.05;;;;;;;15.91;93.80;101696.91;5112930;28;20031;-71
2022/09/23 08:45:01;;;;;;;14.57;7.70;;;;;;;16.09;91.32;101696.91;5114512;28;20023;-70
2022/09/23 08:47:50;;;;;;;13.10;8.25;;;;;;;16.18;92.25;101698.66;5114245;28;20114;-69
2022/09/23 08:50:27;;;;;;;17.75;8.60;;;;;;;16.30;91.20;101699.25;5114129;28;20028;-70
2022/09/23 08:52:57;;;;;;;13.10;7.50;;;;;;;16.42;92.45;101700.69;5113231;28;20138;-72
2022/09/23 08:55:31;;;;;;;13.20;7.13;;;;;;;16.50;92.16;101694.53;5114231;28;20023;-72
2022/09/23 08:58:18;;;;;;;10.63;7.68;;;;;;;16.65;88.64;101702.88;5113864;28;20031;-72
2022/09/23 09:00:54;;;;;;;19.77;7.90;;;;;;;17.09;86.97;101695.59;5112751;28;20526;-70
2022/09/23 09:03:23;;;;;;;19.13;7.63;;;;;;;17.35;84.01;101694.66;5112686;28;20032;-71
2022/09/23 09:05:51;;;;;;;11.95;7.57;;;;;;;17.35;83.07;101697.34;5113687;28;20050;-71
2022/09/23 09:08:28;;;;;;;11.88;7.35;;;;;;;17.27;84.54;101698.19;5113742;28;20028;-71
2022/09/23 09:10:54;;;;;;;11.50;7.50;;;;;;;17.23;85.70;101693.28;5114316;28;20328;-70
2022/09/23 09:13:50;;;;;;;13.63;7.38;;;;;;;17.12;84.26;101693.56;5114042;28;20031;-71
2022/09/23 09:16:43;;;;;;;15.95;8.10;;;;;;;17.03;84.82;101696.22;5114365;28;20028;-71
2022/09/23 09:19:18;;;;;;;12.60;7.30;;;;;;;16.95;85.55;101704.25;5113424;28;20506;-71
2022/09/23 09:21:46;;;;;;;12.82;7.53;;;;;;;16.92;85.96;101696.50;5114141;28;20036;-72
2022/09/23 09:24:18;;;;;;;10.88;7.50;;;;;;;17.07;85.91;101694.06;5113694;28;20057;-71
2022/09/23 09:26:44;;;;;;;13.27;8.07;;;;;;;17.15;85.62;101699.44;5113275;28;20387;-72
2022/09/23 09:29:14;;;;;;;13.80;7.72;;;;;;;17.08;82.02;101695.75;5113502;28;20031;-70
2022/09/23 09:31:46;;;;;;;16.40;7.47;;;;;;;17.21;86.80;101690.75;5113871;28;20440;-71
2022/09/23 09:34:30;;;;;;;17.20;8.35;;;;;;;17.27;82.18;101691.94;5113932;28;20119;-70
2022/09/23 09:36:56;;;;;;;12.07;7.28;;;;;;;17.66;80.32;101680.63;5113464;28;20038;-72
2022/09/23 09:39:21;;;;;;;17.88;7.65;;;;;;;17.88;78.66;101679.13;5113411;28;20114;-70
2022/09/23 09:41:50;;;;;;;14.27;8.15;;;;;;;18.10;77.41;101677.66;5113516;28;20357;-71
2022/09/23 09:44:35;;;;;;;13.27;7.40;;;;;;;18.49;78.49;101665.34;5113985;28;20035;-69
2022/09/23 09:47:27;;;;;;;12.52;7.45;;;;;;;19.23;74.71;101666.97;5113098;28;20363;-70
2022/09/23 09:50:42;;;;;;;13.45;7.13;;;;;;;20.09;70.23;101673.16;5113956;28;20375;-70
2022/09/23 09:53:22;;;;;;;14.77;7.50;;;;;;;19.66;68.46;101668.25;5050573;28;20111;-70
2022/09/23 09:55:59;;;;;;;10.70;7.40;;;;;;;19.40;69.63;101671.25;5050428;28;20036;-70
2022/09/23 09:58:28;;;;;;;16.23;8.63;;;;;;;19.01;70.89;101667.56;5095092;28;20040;-70
2022/09/23 10:00:54;;;;;;;16.30;8.20;;;;;;;18.72;74.37;101664.59;5113286;28;20456;-70
2022/09/23 10:03:29;;;;;;;15.88;7.97;;;;;;;18.55;74.86;101658.41;5113899;28;20471;-69
2022/09/23 10:05:55;;;;;;;16.33;7.80;;;;;;;18.38;77.49;101660.31;5113853;28;20080;-70
2022/09/23 10:08:23;;;;;;;16.30;8.25;;;;;;;18.38;76.10;101657.63;5113131;28;20387;-69
2022/09/23 10:10:55;;;;;;;13.85;7.22;;;;;;;18.24;75.88;101657.31;5113096;28;20031;-70
2022/09/23 10:13:26;;;;;;;12.48;6.20;;;;;;;18.15;75.35;101658.28;5113176;28;20028;-69
2022/09/23 10:15:55;;;;;;;13.75;7.28;;;;;;;18.00;75.15;101663.50;5111594;28;20490;-70
2022/09/23 10:18:32;;;;;;;13.75;7.03;;;;;;;17.97;78.14;101661.16;5111292;28;20039;-70
2022/09/23 10:21:07;;;;;;;11.98;6.95;;;;;;;18.02;80.69;101652.56;5113091;28;20046;-70
2022/09/23 10:23:37;;;;;;;10.98;7.03;;;;;;;18.11;77.76;101662.34;5112748;28;20028;-70
2022/09/23 10:26:07;;;;;;;10.63;6.37;;;;;;;18.24;77.50;101651.06;5114028;28;20118;-70
2022/09/23 10:28:54;;;;;;;10.35;6.13;;;;;;;18.20;74.33;101650.56;5115810;28;20028;-69
2022/09/23 10:31:34;;;;;;;12.23;7.22;;;;;;;18.15;78.45;101653.78;5115698;28;20093;-71
2022/09/23 10:34:03;;;;;;;14.90;6.90;;;;;;;18.19;79.54;101656.94;5116681;28;20035;-69
2022/09/23 10:36:30;;;;;;;22.13;6.53;;;;;;;18.06;77.09;101660.16;5116500;28;20023;-69
2022/09/23 10:46:37;;;;;;;11.48;6.30;;;;;;;18.00;78.10;101655.44;5116487;28;20030;-70
2022/09/23 10:48:00;;;;;;;12.45;6.25;;;;;;;18.55;74.43;101658.41;5116702;28;20042;-70
2022/09/23 10:50:34;;;;;;;14.38;5.40;;;;;;;18.70;76.36;101655.84;5116537;28;20092;-70
2022/09/23 10:53:27;;;;;;;10.05;5.55;;;;;;;18.83;75.56;101650.75;5115936;28;20027;-70
2022/09/23 10:55:58;;;;;;;12.43;6.18;;;;;;;18.80;71.03;101651.94;5116307;28;20023;-70
2022/09/23 10:58:49;;;;;;;16.02;6.93;;;;;;;18.75;74.11;101648.94;5116151;28;20042;-70
2022/09/23 11:01:39;;;;;;;10.55;5.65;;;;;;;18.79;75.68;101644.84;5116043;28;20031;-70
2022/09/23 11:04:39;;;;;;;16.27;7.93;;;;;;;18.80;72.46;101646.56;5116484;28;20080;-71
2022/09/23 11:07:14;;;;;;;15.53;7.03;;;;;;;18.81;75.28;101637.47;5091882;28;20040;-71
2022/09/23 11:10:12;;;;;;;16.23;7.45;;;;;;;18.95;76.60;101640.47;5116657;28;20024;-71
2022/09/23 11:12:56;;;;;;;14.07;7.22;;;;;;;19.06;76.08;101641.94;5102570;28;20036;-70
2022/09/23 11:15:36;;;;;;;11.57;6.28;;;;;;;19.09;75.27;101641.59;5116224;28;20020;-70
2022/09/23 11:18:13;;;;;;;11.73;6.72;;;;;;;19.11;72.73;101636.84;5116037;28;20106;-70
2022/09/23 11:21:19;;;;;;;12.13;6.70;;;;;;;19.46;72.62;101631.94;5116072;28;20024;-70
2022/09/23 11:24:00;;;;;;;16.67;5.97;;;;;;;19.70;69.56;101637.16;5113800;28;20040;-70
2022/09/23 11:26:35;;;;;;;9.80;6.03;;;;;;;19.80;70.62;101631.56;5115911;28;20046;-69
2022/09/23 11:29:22;;;;;;;12.88;6.25;;;;;;;19.73;70.60;101636.81;5115904;28;20055;-70
2022/09/23 11:31:59;;;;;;;8.63;5.68;;;;;;;19.93;68.71;101630.09;5115720;28;20034;-70
2022/09/23 11:34:38;;;;;;;13.52;6.47;;;;;;;20.26;66.23;101627.94;5115843;28;20038;-69
2022/09/23 11:37:13;;;;;;;7.55;5.72;;;;;;;20.66;64.45;101619.59;5115970;28;20031;-70
2022/09/23 11:39:44;;;;;;;8.93;6.22;;;;;;;20.83;64.17;101621.09;5113905;28;20487;-69
2022/09/23 11:42:19;;;;;;;8.75;5.93;;;;;;;20.93;63.39;101624.34;5114918;28;20039;-70
2022/09/23 11:45:24;;;;;;;11.00;4.75;;;;;;;21.06;65.48;101620.13;5116204;28;20082;-69
2022/09/23 11:48:05;;;;;;;7.30;5.30;;;;;;;21.03;61.82;101615.09;5083527;28;20048;-70
2022/09/23 11:50:39;;;;;;;9.95;5.47;;;;;;;20.94;61.84;101615.22;5115482;28;20084;-70